sensor_id;sensor_type;location;lat;lon;timestamp;P1;durP1;ratioP1;P2;durP2;ratioP2
74677;SDS011;63207;56.328;43.994;2022-09-24T00:00:54;2.40;;;1.70;;
74677;SDS011;63207;56.328;43.994;2022-09-24T00:03:23;2.42;;;1.60;;
74677;SDS011;63207;56.328;43.994;2022-09-24T00:06:18;2.83;;;1.60;;
74677;SDS011;63207;56.328;43.994;2022-09-24T00:11:51;2.58;;;1.70;;
74677;SDS011;63207;56.328;43.994;2022-09-24T00:14:38;2.67;;;1.80;;
74677;SDS011;63207;56.328;43.994;2022-09-24T00:17:12;1.67;;;1.38;;
74677;SDS011;63207;56.328;43.994;2022-09-24T00:19:38;2.78;;;1.55;;
74677;SDS011;63207;56.328;43.994;2022-09-24T00:22:50;2.90;;;1.60;;
74677;SDS011;63207;56.328;43.994;2022-09-24T00:25:23;2.20;;;1.50;;
74677;SDS011;63207;56.328;43.994;2022-09-24T00:28:41;2.05;;;1.35;;
74677;SDS011;63207;56.328;43.994;2022-09-24T00:34:50;2.90;;;1.58;;
74677;SDS011;63207;56.328;43.994;2022-09-24T00:40:33;3.08;;;1.77;;
74677;SDS011;63207;56.328;43.994;2022-09-24T00:43:20;2.65;;;1.60;;
74677;SDS011;63207;56.328;43.994;2022-09-24T00:52:28;2.15;;;1.40;;
74677;SDS011;63207;56.328;43.994;2022-09-24T00:54:58;1.85;;;1.30;;
74677;SDS011;63207;56.328;43.994;2022-09-24T01:00:20;2.72;;;1.75;;
74677;SDS011;63207;56.328;43.994;2022-09-24T01:02:57;2.22;;;1.55;;
74677;SDS011;63207;56.328;43.994;2022-09-24T01:05:26;2.97;;;1.52;;
74677;SDS011;63207;56.328;43.994;2022-09-24T01:07:58;2.03;;;1.42;;
74677;SDS011;63207;56.328;43.994;2022-09-24T01:32:09;2.13;;;1.52;;
74677;SDS011;63207;56.328;43.994;2022-09-24T01:38:31;2.42;;;1.55;;
74677;SDS011;63207;56.328;43.994;2022-09-24T01:41:51;1.73;;;1.42;;
74677;SDS011;63207;56.328;43.994;2022-09-24T01:45:04;2.65;;;1.60;;
74677;SDS011;63207;56.328;43.994;2022-09-24T01:47:41;2.38;;;1.40;;
74677;SDS011;63207;56.328;43.994;2022-09-24T01:50:23;2.03;;;1.50;;
74677;SDS011;63207;56.328;43.994;2022-09-24T01:53:09;1.92;;;1.40;;
74677;SDS011;63207;56.328;43.994;2022-09-24T01:55:48;2.38;;;1.50;;
74677;SDS011;63207;56.328;43.994;2022-09-24T02:08:21;1.95;;;1.40;;
74677;SDS011;63207;56.328;43.994;2022-09-24T02:11:16;2.58;;;1.60;;
74677;SDS011;63207;56.328;43.994;2022-09-24T02:14:13;3.00;;;1.52;;
74677;SDS011;63207;56.328;43.994;2022-09-24T02:19:46;1.98;;;1.50;;
74677;SDS011;63207;56.328;43.994;2022-09-24T02:23:35;2.60;;;1.60;;
74677;SDS011;63207;56.328;43.994;2022-09-24T02:26:05;2.58;;;1.48;;
74677;SDS011;63207;56.328;43.994;2022-09-24T02:28:40;1.90;;;1.30;;
74677;SDS011;63207;56.328;43.994;2022-09-24T02:37:14;1.55;;;1.38;;
74677;SDS011;63207;56.328;43.994;2022-09-24T02:39:53;1.80;;;1.30;;
74677;SDS011;63207;56.328;43.994;2022-09-24T02:42:51;2.47;;;1.40;;
74677;SDS011;63207;56.328;43.994;2022-09-24T02:46:01;3.05;;;1.63;;
74677;SDS011;63207;56.328;43.994;2022-09-24T02:49:23;1.85;;;1.30;;
74677;SDS011;63207;56.328;43.994;2022-09-24T02:51:50;1.70;;;1.40;;
74677;SDS011;63207;56.328;43.994;2022-09-24T02:54:35;2.92;;;1.40;;
74677;SDS011;63207;56.328;43.994;2022-09-24T02:57:09;2.38;;;1.67;;
74677;SDS011;63207;56.328;43.994;2022-09-24T02:59:56;2.40;;;1.48;;
74677;SDS011;63207;56.328;43.994;2022-09-24T03:02:53;1.77;;;1.35;;
74677;SDS011;63207;56.328;43.994;2022-09-24T03:08:22;1.70;;;1.50;;
74677;SDS011;63207;56.328;43.994;2022-09-24T03:13:40;2.60;;;1.50;;
74677;SDS011;63207;56.328;43.994;2022-09-24T03:19:15;1.95;;;1.40;;
74677;SDS011;63207;56.328;43.994;2022-09-24T03:21:42;1.80;;;1.40;;
74677;SDS011;63207;56.328;43.994;2022-09-24T03:24:23;2.20;;;1.55;;
74677;SDS011;63207;56.328;43.994;2022-09-24T03:26:50;2.53;;;1.60;;
74677;SDS011;63207;56.328;43.994;2022-09-24T03:29:25;2.20;;;1.55;;
74677;SDS011;63207;56.328;43.994;2022-09-24T03:32:16;2.85;;;1.63;;
74677;SDS011;63207;56.328;43.994;2022-09-24T03:34:42;1.98;;;1.40;;
74677;SDS011;63207;56.328;43.994;2022-09-24T03:37:07;2.13;;;1.50;;
74677;SDS011;63207;56.328;43.994;2022-09-24T03:39:33;1.80;;;1.40;;
74677;SDS011;63207;56.328;43.994;2022-09-24T03:41:59;2.17;;;1.50;;
74677;SDS011;63207;56.328;43.994;2022-09-24T03:47:53;2.30;;;1.48;;
74677;SDS011;63207;56.328;43.994;2022-09-24T03:50:23;1.60;;;1.35;;
74677;SDS011;63207;56.328;43.994;2022-09-24T03:55:48;2.35;;;1.30;;
74677;SDS011;63207;56.328;43.994;2022-09-24T03:58:18;1.80;;;1.45;;
74677;SDS011;63207;56.328;43.994;2022-09-24T04:00:44;1.50;;;1.38;;
74677;SDS011;63207;56.328;43.994;2022-09-24T04:03:10;2.10;;;1.55;;
74677;SDS011;63207;56.328;43.994;2022-09-24T04:05:37;1.85;;;1.30;;
74677;SDS011;63207;56.328;43.994;2022-09-24T04:08:07;2.30;;;1.60;;
74677;SDS011;63207;56.328;43.994;2022-09-24T04:13:53;2.05;;;1.67;;
74677;SDS011;63207;56.328;43.994;2022-09-24T04:16:22;2.78;;;1.58;;
74677;SDS011;63207;56.328;43.994;2022-09-24T04:19:07;1.65;;;1.38;;
74677;SDS011;63207;56.328;43.994;2022-09-24T04:21:57;1.88;;;1.52;;
74677;SDS011;63207;56.328;43.994;2022-09-24T04:24:26;1.83;;;1.60;;
74677;SDS011;63207;56.328;43.994;2022-09-24T04:26:52;2.10;;;1.50;;
74677;SDS011;63207;56.328;43.994;2022-09-24T04:29:39;1.60;;;1.33;;
74677;SDS011;63207;56.328;43.994;2022-09-24T04:32:07;2.22;;;1.63;;
74677;SDS011;63207;56.328;43.994;2022-09-24T04:34:35;1.73;;;1.40;;
74677;SDS011;63207;56.328;43.994;2022-09-24T04:37:36;1.70;;;1.42;;
74677;SDS011;63207;56.328;43.994;2022-09-24T04:40:03;2.83;;;1.60;;
74677;SDS011;63207;56.328;43.994;2022-09-24T04:42:39;2.58;;;1.70;;
74677;SDS011;63207;56.328;43.994;2022-09-24T04:45:09;2.20;;;1.48;;
74677;SDS011;63207;56.328;43.994;2022-09-24T04:50:27;2.35;;;1.48;;
74677;SDS011;63207;56.328;43.994;2022-09-24T04:53:10;2.10;;;1.50;;
74677;SDS011;63207;56.328;43.994;2022-09-24T04:58:50;1.63;;;1.50;;
74677;SDS011;63207;56.328;43.994;2022-09-24T05:01:16;1.85;;;1.48;;
74677;SDS011;63207;56.328;43.994;2022-09-24T05:03:49;1.58;;;1.48;;
74677;SDS011;63207;56.328;43.994;2022-09-24T05:09:36;2.08;;;1.55;;
74677;SDS011;63207;56.328;43.994;2022-09-24T05:12:02;2.17;;;1.52;;
74677;SDS011;63207;56.328;43.994;2022-09-24T05:17:20;2.00;;;1.60;;
74677;SDS011;63207;56.328;43.994;2022-09-24T05:22:50;2.20;;;1.45;;
74677;SDS011;63207;56.328;43.994;2022-09-24T05:28:28;1.95;;;1.67;;
74677;SDS011;63207;56.328;43.994;2022-09-24T05:30:57;1.95;;;1.48;;
74677;SDS011;63207;56.328;43.994;2022-09-24T05:39:53;2.10;;;1.40;;
74677;SDS011;63207;56.328;43.994;2022-09-24T05:42:20;1.83;;;1.50;;
74677;SDS011;63207;56.328;43.994;2022-09-24T05:45:11;2.03;;;1.48;;
74677;SDS011;63207;56.328;43.994;2022-09-24T05:47:43;2.25;;;1.40;;
74677;SDS011;63207;56.328;43.994;2022-09-24T05:50:13;1.88;;;1.50;;
74677;SDS011;63207;56.328;43.994;2022-09-24T05:52:47;2.17;;;1.60;;
74677;SDS011;63207;56.328;43.994;2022-09-24T05:55:34;2.25;;;1.45;;
74677;SDS011;63207;56.328;43.994;2022-09-24T05:58:27;2.15;;;1.55;;
74677;SDS011;63207;56.328;43.994;2022-09-24T06:00:54;2.47;;;1.55;;
74677;SDS011;63207;56.328;43.994;2022-09-24T06:03:24;2.03;;;1.50;;
74677;SDS011;63207;56.328;43.994;2022-09-24T06:06:06;2.07;;;1.40;;
74677;SDS011;63207;56.328;43.994;2022-09-24T06:12:06;2.10;;;1.50;;
74677;SDS011;63207;56.328;43.994;2022-09-24T06:15:14;2.08;;;1.38;;
74677;SDS011;63207;56.328;43.994;2022-09-24T06:17:43;2.10;;;1.45;;
74677;SDS011;63207;56.328;43.994;2022-09-24T06:20:24;2.33;;;1.70;;
74677;SDS011;63207;56.328;43.994;2022-09-24T06:24:01;2.47;;;1.60;;
74677;SDS011;63207;56.328;43.994;2022-09-24T06:26:42;2.10;;;1.42;;
74677;SDS011;63207;56.328;43.994;2022-09-24T06:29:08;1.92;;;1.60;;
74677;SDS011;63207;56.328;43.994;2022-09-24T06:35:48;1.85;;;1.40;;
74677;SDS011;63207;56.328;43.994;2022-09-24T06:41:16;2.60;;;1.67;;
74677;SDS011;63207;56.328;43.994;2022-09-24T06:43:48;1.90;;;1.63;;
74677;SDS011;63207;56.328;43.994;2022-09-24T06:46:36;2.20;;;1.60;;
74677;SDS011;63207;56.328;43.994;2022-09-24T06:52:01;2.15;;;1.67;;
74677;SDS011;63207;56.328;43.994;2022-09-24T07:00:31;2.17;;;1.58;;
74677;SDS011;63207;56.328;43.994;2022-09-24T07:02:57;2.35;;;1.65;;
74677;SDS011;63207;56.328;43.994;2022-09-24T07:05:32;2.00;;;1.40;;
74677;SDS011;63207;56.328;43.994;2022-09-24T07:11:51;1.95;;;1.30;;
74677;SDS011;63207;56.328;43.994;2022-09-24T07:14:34;2.53;;;1.55;;
74677;SDS011;63207;56.328;43.994;2022-09-24T07:17:03;2.22;;;1.50;;
74677;SDS011;63207;56.328;43.994;2022-09-24T07:22:26;2.50;;;1.80;;
74677;SDS011;63207;56.328;43.994;2022-09-24T07:28:13;2.20;;;1.70;;
74677;SDS011;63207;56.328;43.994;2022-09-24T07:34:07;1.85;;;1.30;;
74677;SDS011;63207;56.328;43.994;2022-09-24T07:36:42;2.33;;;1.70;;
74677;SDS011;63207;56.328;43.994;2022-09-24T07:39:13;2.22;;;1.60;;
74677;SDS011;63207;56.328;43.994;2022-09-24T07:41:48;1.88;;;1.45;;
74677;SDS011;63207;56.328;43.994;2022-09-24T07:44:28;2.08;;;1.67;;
74677;SDS011;63207;56.328;43.994;2022-09-24T07:46:57;2.70;;;1.77;;
74677;SDS011;63207;56.328;43.994;2022-09-24T07:49:31;1.90;;;1.53;;
74677;SDS011;63207;56.328;43.994;2022-09-24T07:52:00;1.70;;;1.30;;
74677;SDS011;63207;56.328;43.994;2022-09-24T08:00:59;2.22;;;1.70;;
74677;SDS011;63207;56.328;43.994;2022-09-24T08:03:35;2.60;;;1.80;;
74677;SDS011;63207;56.328;43.994;2022-09-24T08:06:02;1.90;;;1.60;;
74677;SDS011;63207;56.328;43.994;2022-09-24T08:09:05;1.90;;;1.30;;
74677;SDS011;63207;56.328;43.994;2022-09-24T08:12:29;2.20;;;1.50;;
74677;SDS011;63207;56.328;43.994;2022-09-24T08:14:54;2.13;;;1.58;;
74677;SDS011;63207;56.328;43.994;2022-09-24T08:17:20;2.45;;;1.55;;
74677;SDS011;63207;56.328;43.994;2022-09-24T08:19:48;2.20;;;1.65;;
74677;SDS011;63207;56.328;43.994;2022-09-24T08:25:10;1.90;;;1.70;;
74677;SDS011;63207;56.328;43.994;2022-09-24T08:30:56;2.55;;;1.50;;
74677;SDS011;63207;56.328;43.994;2022-09-24T08:34:15;1.88;;;1.50;;
74677;SDS011;63207;56.328;43.994;2022-09-24T08:39:38;2.10;;;1.50;;
74677;SDS011;63207;56.328;43.994;2022-09-24T08:42:05;2.25;;;1.58;;
74677;SDS011;63207;56.328;43.994;2022-09-24T08:48:13;1.92;;;1.50;;
74677;SDS011;63207;56.328;43.994;2022-09-24T08:53:52;1.85;;;1.58;;
74677;SDS011;63207;56.328;43.994;2022-09-24T08:59:36;1.90;;;1.70;;
74677;SDS011;63207;56.328;43.994;2022-09-24T09:15:29;2.55;;;1.58;;
74677;SDS011;63207;56.328;43.994;2022-09-24T09:24:19;1.90;;;1.45;;
74677;SDS011;63207;56.328;43.994;2022-09-24T09:33:02;2.40;;;1.77;;
74677;SDS011;63207;56.328;43.994;2022-09-24T09:38:35;2.00;;;1.77;;
74677;SDS011;63207;56.328;43.994;2022-09-24T09:41:19;2.28;;;1.80;;
74677;SDS011;63207;56.328;43.994;2022-09-24T09:49:42;1.83;;;1.60;;
74677;SDS011;63207;56.328;43.994;2022-09-24T09:52:19;2.17;;;1.52;;
74677;SDS011;63207;56.328;43.994;2022-09-24T09:54:49;1.90;;;1.52;;
74677;SDS011;63207;56.328;43.994;2022-09-24T09:57:17;2.25;;;1.58;;
74677;SDS011;63207;56.328;43.994;2022-09-24T09:59:59;2.30;;;1.60;;
74677;SDS011;63207;56.328;43.994;2022-09-24T10:02:30;2.10;;;1.60;;
74677;SDS011;63207;56.328;43.994;2022-09-24T10:05:03;3.00;;;1.80;;
74677;SDS011;63207;56.328;43.994;2022-09-24T10:07:30;1.88;;;1.63;;
74677;SDS011;63207;56.328;43.994;2022-09-24T10:15:38;1.85;;;1.55;;
74677;SDS011;63207;56.328;43.994;2022-09-24T10:21:30;2.67;;;1.80;;
74677;SDS011;63207;56.328;43.994;2022-09-24T10:24:05;1.80;;;1.55;;
74677;SDS011;63207;56.328;43.994;2022-09-24T10:26:41;2.33;;;1.90;;
74677;SDS011;63207;56.328;43.994;2022-09-24T10:32:02;2.20;;;1.58;;
74677;SDS011;63207;56.328;43.994;2022-09-24T10:44:21;1.92;;;1.65;;
74677;SDS011;63207;56.328;43.994;2022-09-24T10:53:12;1.95;;;1.75;;
74677;SDS011;63207;56.328;43.994;2022-09-24T10:59:37;2.42;;;1.90;;
74677;SDS011;63207;56.328;43.994;2022-09-24T11:05:26;2.80;;;1.63;;
74677;SDS011;63207;56.328;43.994;2022-09-24T11:08:08;2.30;;;1.70;;
74677;SDS011;63207;56.328;43.994;2022-09-24T11:52:42;2.33;;;1.50;;
74677;SDS011;63207;56.328;43.994;2022-09-24T11:58:50;3.58;;;2.00;;
74677;SDS011;63207;56.328;43.994;2022-09-24T12:07:54;2.78;;;1.85;;
74677;SDS011;63207;56.328;43.994;2022-09-24T12:10:41;2.03;;;1.70;;
74677;SDS011;63207;56.328;43.994;2022-09-24T12:16:19;2.40;;;1.90;;
74677;SDS011;63207;56.328;43.994;2022-09-24T12:21:52;3.00;;;1.70;;
74677;SDS011;63207;56.328;43.994;2022-09-24T12:27:09;2.17;;;1.50;;
74677;SDS011;63207;56.328;43.994;2022-09-24T12:36:08;2.65;;;1.90;;
74677;SDS011;63207;56.328;43.994;2022-09-24T12:38:44;2.15;;;1.60;;
74677;SDS011;63207;56.328;43.994;2022-09-24T12:42:07;2.28;;;1.67;;
74677;SDS011;63207;56.328;43.994;2022-09-24T12:51:46;2.22;;;1.42;;
74677;SDS011;63207;56.328;43.994;2022-09-24T12:54:32;2.10;;;1.60;;
74677;SDS011;63207;56.328;43.994;2022-09-24T12:57:19;2.80;;;1.70;;
74677;SDS011;63207;56.328;43.994;2022-09-24T13:12:00;2.38;;;1.50;;
74677;SDS011;63207;56.328;43.994;2022-09-24T13:23:50;2.67;;;1.67;;
74677;SDS011;63207;56.328;43.994;2022-09-24T13:29:21;2.20;;;1.50;;
74677;SDS011;63207;56.328;43.994;2022-09-24T13:31:58;1.80;;;1.50;;
74677;SDS011;63207;56.328;43.994;2022-09-24T13:34:27;1.98;;;1.70;;
74677;SDS011;63207;56.328;43.994;2022-09-24T13:39:58;2.30;;;1.70;;
74677;SDS011;63207;56.328;43.994;2022-09-24T13:42:37;2.28;;;1.70;;
74677;SDS011;63207;56.328;43.994;2022-09-24T13:45:46;1.70;;;1.45;;
74677;SDS011;63207;56.328;43.994;2022-09-24T13:49:00;1.65;;;1.40;;
74677;SDS011;63207;56.328;43.994;2022-09-24T13:51:13;2.15;;;1.83;;
74677;SDS011;63207;56.328;43.994;2022-09-24T13:54:12;2.03;;;1.70;;
74677;SDS011;63207;56.328;43.994;2022-09-24T14:03:21;2.00;;;1.70;;
74677;SDS011;63207;56.328;43.994;2022-09-24T14:05:50;2.00;;;1.60;;
74677;SDS011;63207;56.328;43.994;2022-09-24T14:08:19;1.88;;;1.42;;
74677;SDS011;63207;56.328;43.994;2022-09-24T14:10:50;2.35;;;1.88;;
74677;SDS011;63207;56.328;43.994;2022-09-24T14:13:34;1.73;;;1.45;;
74677;SDS011;63207;56.328;43.994;2022-09-24T14:16:26;2.40;;;1.77;;
74677;SDS011;63207;56.328;43.994;2022-09-24T14:19:02;2.22;;;1.40;;
74677;SDS011;63207;56.328;43.994;2022-09-24T14:21:35;2.33;;;1.60;;
74677;SDS011;63207;56.328;43.994;2022-09-24T14:27:10;2.15;;;1.40;;
74677;SDS011;63207;56.328;43.994;2022-09-24T14:32:39;2.60;;;1.85;;
74677;SDS011;63207;56.328;43.994;2022-09-24T14:38:17;2.38;;;1.70;;
74677;SDS011;63207;56.328;43.994;2022-09-24T14:41:54;2.13;;;1.50;;
74677;SDS011;63207;56.328;43.994;2022-09-24T14:44:44;2.47;;;1.65;;
74677;SDS011;63207;56.328;43.994;2022-09-24T14:47:31;2.35;;;1.83;;
74677;SDS011;63207;56.328;43.994;2022-09-24T14:52:55;3.28;;;1.83;;
74677;SDS011;63207;56.328;43.994;2022-09-24T14:55:24;1.83;;;1.63;;
74677;SDS011;63207;56.328;43.994;2022-09-24T14:58:23;2.95;;;1.50;;
74677;SDS011;63207;56.328;43.994;2022-09-24T15:01:18;3.08;;;1.90;;
74677;SDS011;63207;56.328;43.994;2022-09-24T15:03:48;4.75;;;2.03;;
74677;SDS011;63207;56.328;43.994;2022-09-24T15:11:51;4.95;;;1.92;;
74677;SDS011;63207;56.328;43.994;2022-09-24T15:15:03;4.38;;;1.75;;
74677;SDS011;63207;56.328;43.994;2022-09-24T15:17:35;5.05;;;1.63;;
74677;SDS011;63207;56.328;43.994;2022-09-24T15:20:02;7.13;;;1.92;;
74677;SDS011;63207;56.328;43.994;2022-09-24T15:22:29;4.50;;;1.80;;
74677;SDS011;63207;56.328;43.994;2022-09-24T15:24:57;5.55;;;2.25;;
74677;SDS011;63207;56.328;43.994;2022-09-24T15:27:46;7.13;;;2.50;;
74677;SDS011;63207;56.328;43.994;2022-09-24T15:30:24;7.35;;;2.30;;
74677;SDS011;63207;56.328;43.994;2022-09-24T15:32:59;5.25;;;2.05;;
74677;SDS011;63207;56.328;43.994;2022-09-24T15:37:56;5.47;;;2.00;;
74677;SDS011;63207;56.328;43.994;2022-09-24T15:40:25;3.85;;;1.80;;
74677;SDS011;63207;56.328;43.994;2022-09-24T15:42:54;4.50;;;1.73;;
74677;SDS011;63207;56.328;43.994;2022-09-24T15:45:26;6.45;;;2.22;;
74677;SDS011;63207;56.328;43.994;2022-09-24T15:47:52;2.83;;;1.80;;
74677;SDS011;63207;56.328;43.994;2022-09-24T15:50:21;3.25;;;1.55;;
74677;SDS011;63207;56.328;43.994;2022-09-24T15:52:58;3.47;;;1.75;;
74677;SDS011;63207;56.328;43.994;2022-09-24T15:55:26;7.40;;;1.90;;
74677;SDS011;63207;56.328;43.994;2022-09-24T15:57:57;4.18;;;1.80;;
74677;SDS011;63207;56.328;43.994;2022-09-24T16:00:38;3.70;;;2.00;;
74677;SDS011;63207;56.328;43.994;2022-09-24T16:03:19;3.13;;;1.90;;
74677;SDS011;63207;56.328;43.994;2022-09-24T16:09:05;3.10;;;1.73;;
74677;SDS011;63207;56.328;43.994;2022-09-24T16:11:31;3.00;;;1.85;;
74677;SDS011;63207;56.328;43.994;2022-09-24T16:14:21;4.50;;;2.17;;
74677;SDS011;63207;56.328;43.994;2022-09-24T16:16:47;4.43;;;2.28;;
74677;SDS011;63207;56.328;43.994;2022-09-24T16:19:13;3.50;;;2.10;;
74677;SDS011;63207;56.328;43.994;2022-09-24T16:21:44;4.25;;;2.13;;
74677;SDS011;63207;56.328;43.994;2022-09-24T16:24:15;3.40;;;1.92;;
74677;SDS011;63207;56.328;43.994;2022-09-24T16:26:44;4.68;;;2.30;;
74677;SDS011;63207;56.328;43.994;2022-09-24T16:29:21;4.15;;;2.10;;
74677;SDS011;63207;56.328;43.994;2022-09-24T16:31:47;4.78;;;2.30;;
74677;SDS011;63207;56.328;43.994;2022-09-24T16:34:13;4.03;;;2.30;;
74677;SDS011;63207;56.328;43.994;2022-09-24T16:37:00;3.83;;;2.50;;
74677;SDS011;63207;56.328;43.994;2022-09-24T16:39:26;3.75;;;2.50;;
74677;SDS011;63207;56.328;43.994;2022-09-24T16:41:52;3.72;;;2.42;;
74677;SDS011;63207;56.328;43.994;2022-09-24T16:47:14;4.88;;;2.53;;
74677;SDS011;63207;56.328;43.994;2022-09-24T16:50:09;5.32;;;2.40;;
74677;SDS011;63207;56.328;43.994;2022-09-24T16:52:40;5.35;;;2.50;;
74677;SDS011;63207;56.328;43.994;2022-09-24T16:55:09;6.20;;;2.50;;
74677;SDS011;63207;56.328;43.994;2022-09-24T17:00:34;5.25;;;2.55;;
74677;SDS011;63207;56.328;43.994;2022-09-24T17:03:00;4.53;;;2.28;;
74677;SDS011;63207;56.328;43.994;2022-09-24T17:05:26;6.07;;;2.50;;
74677;SDS011;63207;56.328;43.994;2022-09-24T17:07:52;4.13;;;2.42;;
74677;SDS011;63207;56.328;43.994;2022-09-24T17:10:19;3.17;;;2.20;;
74677;SDS011;63207;56.328;43.994;2022-09-24T17:12:49;4.15;;;2.53;;
74677;SDS011;63207;56.328;43.994;2022-09-24T17:15:16;4.38;;;2.42;;
74677;SDS011;63207;56.328;43.994;2022-09-24T17:17:45;5.60;;;2.30;;
74677;SDS011;63207;56.328;43.994;2022-09-24T17:20:11;3.58;;;2.17;;
74677;SDS011;63207;56.328;43.994;2022-09-24T17:22:38;4.22;;;2.50;;
74677;SDS011;63207;56.328;43.994;2022-09-24T17:25:04;8.60;;;2.60;;
74677;SDS011;63207;56.328;43.994;2022-09-24T17:27:34;4.65;;;2.40;;
74677;SDS011;63207;56.328;43.994;2022-09-24T17:30:08;6.75;;;2.92;;
74677;SDS011;63207;56.328;43.994;2022-09-24T17:32:35;8.88;;;2.80;;
74677;SDS011;63207;56.328;43.994;2022-09-24T17:35:00;8.82;;;2.75;;
74677;SDS011;63207;56.328;43.994;2022-09-24T17:37:31;9.35;;;2.95;;
74677;SDS011;63207;56.328;43.994;2022-09-24T17:39:57;5.68;;;2.72;;
74677;SDS011;63207;56.328;43.994;2022-09-24T17:42:23;8.43;;;2.80;;
74677;SDS011;63207;56.328;43.994;2022-09-24T17:44:48;10.75;;;2.70;;
74677;SDS011;63207;56.328;43.994;2022-09-24T17:47:14;6.45;;;2.67;;
74677;SDS011;63207;56.328;43.994;2022-09-24T17:49:40;11.57;;;2.55;;
74677;SDS011;63207;56.328;43.994;2022-09-24T17:52:07;7.85;;;2.45;;
74677;SDS011;63207;56.328;43.994;2022-09-24T17:54:33;11.40;;;2.92;;
74677;SDS011;63207;56.328;43.994;2022-09-24T17:56:59;8.43;;;2.45;;
74677;SDS011;63207;56.328;43.994;2022-09-24T17:59:26;8.90;;;2.78;;
74677;SDS011;63207;56.328;43.994;2022-09-24T18:02:10;10.32;;;2.72;;
74677;SDS011;63207;56.328;43.994;2022-09-24T18:04:36;7.28;;;2.80;;
74677;SDS011;63207;56.328;43.994;2022-09-24T18:07:02;6.55;;;2.50;;
74677;SDS011;63207;56.328;43.994;2022-09-24T18:09:28;5.63;;;2.60;;
74677;SDS011;63207;56.328;43.994;2022-09-24T18:11:54;8.75;;;2.33;;
74677;SDS011;63207;56.328;43.994;2022-09-24T18:14:21;6.68;;;2.30;;
74677;SDS011;63207;56.328;43.994;2022-09-24T18:16:48;7.18;;;2.40;;
74677;SDS011;63207;56.328;43.994;2022-09-24T18:19:14;4.40;;;2.60;;
74677;SDS011;63207;56.328;43.994;2022-09-24T18:21:42;4.03;;;2.30;;
74677;SDS011;63207;56.328;43.994;2022-09-24T18:24:09;5.60;;;2.40;;
74677;SDS011;63207;56.328;43.994;2022-09-24T18:26:35;4.35;;;2.28;;
74677;SDS011;63207;56.328;43.994;2022-09-24T18:29:03;4.70;;;2.30;;
74677;SDS011;63207;56.328;43.994;2022-09-24T18:31:35;2.63;;;1.88;;
74677;SDS011;63207;56.328;43.994;2022-09-24T18:34:02;4.70;;;2.13;;
74677;SDS011;63207;56.328;43.994;2022-09-24T18:36:31;6.35;;;2.50;;
74677;SDS011;63207;56.328;43.994;2022-09-24T18:39:02;4.95;;;2.15;;
74677;SDS011;63207;56.328;43.994;2022-09-24T18:41:30;5.25;;;2.13;;
74677;SDS011;63207;56.328;43.994;2022-09-24T18:43:56;8.57;;;2.50;;
74677;SDS011;63207;56.328;43.994;2022-09-24T18:46:24;2.72;;;2.00;;
74677;SDS011;63207;56.328;43.994;2022-09-24T18:48:54;2.90;;;1.90;;
74677;SDS011;63207;56.328;43.994;2022-09-24T18:51:21;3.38;;;2.00;;
74677;SDS011;63207;56.328;43.994;2022-09-24T18:54:00;5.25;;;2.03;;
74677;SDS011;63207;56.328;43.994;2022-09-24T18:56:32;4.47;;;2.10;;
74677;SDS011;63207;56.328;43.994;2022-09-24T18:59:18;4.45;;;2.17;;
74677;SDS011;63207;56.328;43.994;2022-09-24T19:01:45;5.38;;;2.70;;
74677;SDS011;63207;56.328;43.994;2022-09-24T19:04:12;4.20;;;1.95;;
74677;SDS011;63207;56.328;43.994;2022-09-24T19:06:39;3.58;;;1.90;;
74677;SDS011;63207;56.328;43.994;2022-09-24T19:09:07;4.95;;;2.13;;
74677;SDS011;63207;56.328;43.994;2022-09-24T19:11:52;6.38;;;2.08;;
74677;SDS011;63207;56.328;43.994;2022-09-24T19:14:18;3.78;;;2.10;;
74677;SDS011;63207;56.328;43.994;2022-09-24T19:16:44;4.10;;;2.20;;
74677;SDS011;63207;56.328;43.994;2022-09-24T19:19:11;6.53;;;2.55;;
74677;SDS011;63207;56.328;43.994;2022-09-24T19:21:37;3.97;;;1.88;;
74677;SDS011;63207;56.328;43.994;2022-09-24T19:24:03;3.03;;;2.17;;
74677;SDS011;63207;56.328;43.994;2022-09-24T19:26:31;4.18;;;2.10;;
74677;SDS011;63207;56.328;43.994;2022-09-24T19:28:59;5.70;;;1.95;;
74677;SDS011;63207;56.328;43.994;2022-09-24T19:31:26;3.28;;;2.00;;
74677;SDS011;63207;56.328;43.994;2022-09-24T19:33:57;3.95;;;1.80;;
74677;SDS011;63207;56.328;43.994;2022-09-24T19:36:45;4.53;;;2.15;;
74677;SDS011;63207;56.328;43.994;2022-09-24T19:39:12;5.15;;;2.20;;
74677;SDS011;63207;56.328;43.994;2022-09-24T19:41:40;3.47;;;1.95;;
74677;SDS011;63207;56.328;43.994;2022-09-24T19:44:06;3.47;;;2.10;;
74677;SDS011;63207;56.328;43.994;2022-09-24T19:46:32;4.78;;;2.00;;
74677;SDS011;63207;56.328;43.994;2022-09-24T19:48:58;4.25;;;1.98;;
74677;SDS011;63207;56.328;43.994;2022-09-24T19:51:26;3.65;;;1.80;;
74677;SDS011;63207;56.328;43.994;2022-09-24T19:53:58;5.72;;;2.10;;
74677;SDS011;63207;56.328;43.994;2022-09-24T19:56:25;4.88;;;2.15;;
74677;SDS011;63207;56.328;43.994;2022-09-24T19:58:52;4.20;;;1.90;;
74677;SDS011;63207;56.328;43.994;2022-09-24T20:01:21;3.33;;;2.05;;
74677;SDS011;63207;56.328;43.994;2022-09-24T20:03:54;4.63;;;2.10;;
74677;SDS011;63207;56.328;43.994;2022-09-24T20:06:22;3.38;;;2.05;;
74677;SDS011;63207;56.328;43.994;2022-09-24T20:08:50;4.15;;;1.90;;
74677;SDS011;63207;56.328;43.994;2022-09-24T20:11:17;4.15;;;2.28;;
74677;SDS011;63207;56.328;43.994;2022-09-24T20:13:46;3.55;;;1.80;;
74677;SDS011;63207;56.328;43.994;2022-09-24T20:16:13;3.97;;;2.08;;
74677;SDS011;63207;56.328;43.994;2022-09-24T20:19:09;3.88;;;1.90;;
74677;SDS011;63207;56.328;43.994;2022-09-24T20:21:36;6.10;;;2.20;;
74677;SDS011;63207;56.328;43.994;2022-09-24T20:24:03;3.55;;;2.25;;
74677;SDS011;63207;56.328;43.994;2022-09-24T20:26:30;3.17;;;2.03;;
74677;SDS011;63207;56.328;43.994;2022-09-24T20:29:15;3.38;;;1.67;;
74677;SDS011;63207;56.328;43.994;2022-09-24T20:31:44;3.67;;;2.17;;
74677;SDS011;63207;56.328;43.994;2022-09-24T20:34:18;3.15;;;1.73;;
74677;SDS011;63207;56.328;43.994;2022-09-24T20:36:46;3.72;;;1.92;;
74677;SDS011;63207;56.328;43.994;2022-09-24T20:39:12;3.72;;;1.98;;
74677;SDS011;63207;56.328;43.994;2022-09-24T20:41:38;3.97;;;2.00;;
74677;SDS011;63207;56.328;43.994;2022-09-24T20:44:06;2.65;;;1.77;;
74677;SDS011;63207;56.328;43.994;2022-09-24T20:46:32;3.55;;;1.90;;
74677;SDS011;63207;56.328;43.994;2022-09-24T20:48:58;2.85;;;2.00;;
74677;SDS011;63207;56.328;43.994;2022-09-24T20:51:25;3.00;;;2.03;;
74677;SDS011;63207;56.328;43.994;2022-09-24T20:53:53;2.30;;;1.73;;
74677;SDS011;63207;56.328;43.994;2022-09-24T20:56:22;3.92;;;2.03;;
74677;SDS011;63207;56.328;43.994;2022-09-24T20:58:48;3.00;;;1.80;;
74677;SDS011;63207;56.328;43.994;2022-09-24T21:01:34;2.85;;;1.98;;
74677;SDS011;63207;56.328;43.994;2022-09-24T21:04:01;2.45;;;2.00;;
74677;SDS011;63207;56.328;43.994;2022-09-24T21:06:47;5.40;;;2.00;;
74677;SDS011;63207;56.328;43.994;2022-09-24T21:09:13;3.17;;;1.90;;
74677;SDS011;63207;56.328;43.994;2022-09-24T21:11:39;3.55;;;2.10;;
74677;SDS011;63207;56.328;43.994;2022-09-24T21:14:07;3.08;;;1.67;;
74677;SDS011;63207;56.328;43.994;2022-09-24T21:16:53;3.40;;;1.70;;
74677;SDS011;63207;56.328;43.994;2022-09-24T21:19:20;3.30;;;1.63;;
74677;SDS011;63207;56.328;43.994;2022-09-24T21:21:46;3.08;;;1.85;;
74677;SDS011;63207;56.328;43.994;2022-09-24T21:24:12;2.75;;;1.75;;
74677;SDS011;63207;56.328;43.994;2022-09-24T21:26:39;2.95;;;1.75;;
74677;SDS011;63207;56.328;43.994;2022-09-24T21:29:07;2.80;;;1.70;;